createdAt,value
2023-08-01T00:02:18.069Z,21.05
2023-08-01T00:05:20.741Z,21.05
2023-08-01T00:08:23.113Z,21.02
2023-08-01T00:11:25.717Z,21.05
2023-08-01T00:14:28.180Z,21.02
2023-08-01T00:17:30.981Z,20.96
2023-08-01T00:20:33.431Z,20.94
2023-08-01T00:23:36.147Z,20.88
2023-08-01T00:26:38.995Z,20.93
2023-08-01T00:29:42.453Z,20.93
2023-08-01T00:32:44.932Z,20.89
2023-08-01T00:35:54.967Z,20.87
2023-08-01T00:38:57.374Z,20.82
2023-08-01T00:42:00.778Z,20.73
2023-08-01T00:45:03.302Z,20.74
2023-08-01T00:48:06.617Z,20.71
2023-08-01T00:51:11.071Z,20.67
2023-08-01T00:54:13.884Z,20.53
2023-08-01T00:57:16.376Z,20.58
2023-08-01T01:00:19.082Z,20.47
2023-08-01T01:03:22.319Z,20.40
2023-08-01T01:06:42.377Z,20.33
2023-08-01T01:09:45.363Z,20.35
2023-08-01T01:12:48.886Z,20.41
2023-08-01T01:15:51.984Z,20.40
2023-08-01T01:18:54.730Z,20.42
2023-08-01T01:21:59.008Z,20.35
2023-08-01T01:25:03.516Z,20.29
2023-08-01T01:28:08.477Z,20.29
2023-08-01T01:31:11.175Z,20.18
2023-08-01T01:34:13.980Z,20.13
2023-08-01T01:37:16.611Z,20.12
2023-08-01T01:40:19.054Z,20.06
2023-08-01T01:43:21.687Z,20.06
2023-08-01T01:46:24.138Z,20.06
2023-08-01T01:49:27.359Z,20.01
2023-08-01T01:52:29.880Z,19.95
2023-08-01T01:55:32.503Z,19.98
2023-08-01T01:58:35.648Z,19.93
2023-08-01T02:01:38.309Z,19.94
2023-08-01T02:04:41.041Z,19.89
2023-08-01T02:07:43.462Z,19.92
2023-08-01T02:10:46.142Z,19.91
2023-08-01T02:13:48.505Z,19.94
2023-08-01T02:16:51.261Z,19.95
2023-08-01T02:19:53.717Z,19.90
2023-08-01T02:22:56.545Z,19.97
2023-08-01T02:25:58.960Z,19.93
2023-08-01T02:29:01.728Z,19.90
2023-08-01T02:32:04.334Z,19.85
2023-08-01T02:35:07.337Z,19.83
2023-08-01T02:38:09.840Z,19.85
2023-08-01T02:41:12.535Z,19.91
2023-08-01T02:44:15.120Z,19.88
2023-08-01T02:47:17.809Z,19.84
2023-08-01T02:50:20.218Z,19.80
2023-08-01T02:53:23.019Z,19.88
2023-08-01T02:56:25.490Z,19.80
2023-08-01T02:59:28.180Z,19.75
2023-08-01T03:02:30.591Z,19.64
2023-08-01T03:05:33.516Z,19.43
2023-08-01T03:08:35.933Z,19.39
2023-08-01T03:11:39.028Z,19.31
2023-08-01T03:14:44.418Z,19.16
2023-08-01T03:17:47.145Z,19.09
2023-08-01T03:20:49.585Z,19.18
2023-08-01T03:23:52.266Z,19.07
2023-08-01T03:26:54.651Z,19.08
2023-08-01T03:29:57.314Z,19.05
2023-08-01T03:33:00.522Z,19.09
2023-08-01T03:36:05.051Z,19.13
2023-08-01T03:39:07.410Z,19.17
2023-08-01T03:42:10.080Z,19.32
2023-08-01T03:45:12.546Z,19.36
2023-08-01T03:48:15.196Z,19.40
2023-08-01T03:51:19.003Z,19.41
2023-08-01T03:54:21.646Z,19.41
2023-08-01T03:57:24.166Z,19.43
2023-08-01T04:00:27.228Z,19.54
2023-08-01T04:03:29.990Z,19.55
2023-08-01T04:06:32.431Z,19.71
2023-08-01T04:09:35.255Z,19.72
2023-08-01T04:12:37.581Z,19.91
2023-08-01T04:15:40.280Z,20.02
2023-08-01T04:18:42.683Z,19.96
2023-08-01T04:21:45.363Z,20.01
2023-08-01T04:24:47.715Z,20.05
2023-08-01T04:27:50.394Z,19.98
2023-08-01T04:30:53.721Z,20.05
2023-08-01T04:33:56.557Z,20.02
2023-08-01T04:36:58.961Z,20.02
2023-08-01T04:40:01.648Z,20.04
2023-08-01T04:43:04.232Z,20.06
2023-08-01T04:46:06.919Z,20.08
2023-08-01T04:49:09.294Z,20.08
2023-08-01T04:52:11.968Z,20.10
2023-08-01T04:55:14.622Z,20.22
2023-08-01T04:58:17.359Z,20.22
2023-08-01T05:01:19.714Z,20.41
2023-08-01T05:04:22.566Z,20.49
2023-08-01T05:07:24.944Z,20.45
2023-08-01T05:10:27.673Z,20.39
2023-08-01T05:13:30.187Z,20.46
2023-08-01T05:16:32.883Z,20.48
2023-08-01T05:19:35.379Z,20.46
2023-08-01T05:22:37.992Z,20.50
2023-08-01T05:25:40.426Z,20.53
2023-08-01T05:28:43.155Z,20.63
2023-08-01T05:31:45.614Z,20.65
2023-08-01T05:34:48.354Z,20.53
2023-08-01T05:37:50.724Z,20.58
2023-08-01T05:40:53.611Z,20.70
2023-08-01T05:43:56.093Z,20.85
2023-08-01T05:46:58.736Z,20.94
2023-08-01T05:50:01.106Z,20.86
2023-08-01T05:53:03.764Z,20.93
2023-08-01T05:56:06.424Z,20.92
2023-08-01T05:59:09.186Z,20.99
2023-08-01T06:02:11.619Z,21.11
2023-08-01T06:05:14.630Z,21.77
2023-08-01T06:08:17.155Z,22.44
2023-08-01T06:11:20.033Z,22.99
2023-08-01T06:14:22.557Z,23.10
2023-08-01T06:17:25.317Z,23.41
2023-08-01T06:20:30.786Z,23.82
2023-08-01T06:23:33.720Z,24.08
2023-08-01T06:26:36.416Z,24.11
2023-08-01T06:29:41.260Z,24.05
2023-08-01T06:32:43.740Z,24.44
2023-08-01T06:35:46.505Z,24.70
2023-08-01T06:38:49.103Z,24.72
2023-08-01T06:41:51.913Z,24.55
2023-08-01T06:44:54.447Z,24.41
2023-08-01T06:47:57.230Z,24.16
2023-08-01T06:50:59.698Z,24.80
2023-08-01T06:54:02.386Z,25.17
2023-08-01T06:57:05.517Z,24.73
2023-08-01T07:00:09.176Z,24.99
2023-08-01T07:03:11.668Z,25.39
2023-08-01T07:06:14.466Z,25.78
2023-08-01T07:09:16.958Z,25.65
2023-08-01T07:12:19.714Z,25.10
2023-08-01T07:15:22.384Z,25.32
2023-08-01T07:18:25.104Z,25.58
2023-08-01T07:21:27.578Z,25.80
2023-08-01T07:24:30.221Z,26.06
2023-08-01T07:27:32.792Z,26.05
2023-08-01T07:30:35.492Z,25.56
2023-08-01T07:33:38.079Z,26.20
2023-08-01T07:36:41.087Z,26.17
2023-08-01T07:39:43.721Z,27.18
2023-08-01T07:42:47.450Z,27.23
2023-08-01T07:45:51.805Z,27.05
2023-08-01T07:48:55.394Z,26.71
2023-08-01T07:51:57.900Z,25.97
2023-08-01T07:55:00.792Z,26.44
2023-08-01T07:58:03.484Z,26.56
2023-08-01T08:01:07.423Z,26.46
2023-08-01T08:04:10.179Z,26.58
2023-08-01T08:07:12.778Z,26.60
2023-08-01T08:10:16.345Z,26.64
2023-08-01T08:13:19.587Z,26.75
2023-08-01T08:16:22.435Z,26.66
2023-08-01T08:19:26.424Z,26.87
2023-08-01T08:22:29.102Z,26.81
2023-08-01T08:25:31.557Z,26.74
2023-08-01T08:28:35.200Z,26.63
2023-08-01T08:31:37.857Z,26.49
2023-08-01T08:34:40.744Z,26.85
2023-08-01T08:37:43.196Z,26.71
2023-08-01T08:41:00.227Z,26.72
2023-08-01T08:44:06.218Z,27.08
2023-08-01T08:47:11.570Z,27.06
2023-08-01T08:50:15.026Z,27.23
2023-08-01T08:53:18.924Z,27.43
2023-08-01T08:56:21.599Z,27.64
2023-08-01T08:59:26.487Z,27.89
2023-08-01T09:02:29.500Z,27.94
2023-08-01T09:05:40.963Z,27.88
2023-08-01T09:08:52.349Z,27.82
2023-08-01T09:11:57.565Z,28.34
2023-08-01T09:15:00.435Z,28.08
2023-08-01T09:18:07.874Z,27.84
2023-08-01T09:21:10.423Z,27.50
2023-08-01T09:24:18.255Z,27.89
2023-08-01T09:27:23.310Z,27.90
2023-08-01T09:30:26.116Z,27.54
2023-08-01T09:33:39.766Z,27.64
2023-08-01T09:36:42.825Z,27.62
2023-08-01T09:39:47.811Z,27.67
2023-08-01T09:42:50.657Z,28.04
2023-08-01T09:45:54.692Z,27.71
2023-08-01T09:49:11.186Z,27.72
2023-08-01T09:52:13.650Z,28.01
2023-08-01T09:55:16.318Z,28.73
2023-08-01T09:58:22.246Z,28.49
2023-08-01T10:01:26.030Z,28.72
2023-08-01T10:04:31.553Z,27.86
2023-08-01T10:07:35.579Z,27.85
2023-08-01T10:10:38.841Z,28.73
2023-08-01T10:13:43.821Z,29.04
2023-08-01T10:16:47.192Z,29.22
2023-08-01T10:19:52.247Z,29.14
2023-08-01T10:22:55.405Z,29.07
2023-08-01T10:26:00.687Z,29.35
2023-08-01T10:29:03.747Z,29.55
2023-08-01T10:32:08.746Z,29.47
2023-08-01T10:35:11.641Z,29.22
2023-08-01T10:38:14.176Z,29.13
2023-08-01T10:41:21.185Z,28.77
2023-08-01T10:44:23.618Z,29.12
2023-08-01T10:47:28.268Z,29.22
2023-08-01T10:50:30.773Z,29.17
2023-08-01T10:53:42.391Z,29.19
2023-08-01T10:56:47.577Z,29.03
2023-08-01T10:59:50.405Z,29.07
2023-08-01T11:02:53.206Z,29.42
2023-08-01T11:05:59.371Z,29.61
2023-08-01T11:09:01.920Z,29.93
2023-08-01T11:12:05.260Z,29.83
2023-08-01T11:15:10.320Z,30.07
2023-08-01T11:18:13.182Z,29.66
2023-08-01T11:21:26.611Z,29.93
2023-08-01T11:24:29.358Z,29.70
2023-08-01T11:27:31.921Z,29.85
2023-08-01T11:30:35.006Z,29.70
2023-08-01T11:33:37.383Z,29.53
2023-08-01T11:36:40.768Z,29.74
2023-08-01T11:39:43.696Z,29.82
2023-08-01T11:42:53.679Z,29.59
2023-08-01T11:45:57.815Z,29.64
2023-08-01T11:49:03.994Z,29.88
2023-08-01T11:52:08.544Z,29.93
2023-08-01T11:55:20.694Z,29.77
2023-08-01T11:58:33.941Z,30.17
2023-08-01T12:01:45.807Z,29.84
2023-08-01T12:04:48.773Z,29.93
2023-08-01T12:07:51.612Z,29.95
2023-08-01T12:10:54.391Z,29.97
2023-08-01T12:14:13.011Z,29.98
2023-08-01T12:17:15.771Z,29.98
2023-08-01T12:20:18.258Z,29.65
2023-08-01T12:23:21.470Z,29.58
2023-08-01T12:26:24.194Z,29.75
2023-08-01T12:29:26.872Z,29.73
2023-08-01T12:32:29.234Z,29.75
2023-08-01T12:35:32.003Z,29.72
2023-08-01T12:38:34.409Z,29.59
2023-08-01T12:41:37.985Z,29.69
2023-08-01T12:44:40.500Z,29.70
2023-08-01T12:47:43.576Z,29.25
2023-08-01T12:50:46.827Z,29.67
2023-08-01T12:53:49.638Z,30.00
2023-08-01T12:56:52.445Z,29.74
2023-08-01T12:59:55.354Z,29.81
2023-08-01T13:02:57.986Z,29.86
2023-08-01T13:06:00.749Z,29.83
2023-08-01T13:09:03.985Z,29.61
2023-08-01T13:12:07.458Z,29.63
2023-08-01T13:15:17.402Z,29.56
2023-08-01T13:18:21.112Z,29.74
2023-08-01T13:21:24.138Z,29.49
2023-08-01T13:24:26.889Z,29.39
2023-08-01T13:27:29.262Z,29.29
2023-08-01T13:30:32.225Z,29.36
2023-08-01T13:33:34.773Z,29.23
2023-08-01T13:36:37.665Z,29.52
2023-08-01T13:39:40.549Z,30.01
2023-08-01T13:42:43.250Z,29.94
2023-08-01T13:45:45.947Z,30.04
2023-08-01T13:48:51.222Z,29.74
2023-08-01T13:51:53.752Z,29.88
2023-08-01T13:54:56.690Z,29.80
2023-08-01T13:57:59.179Z,30.10
2023-08-01T14:01:06.200Z,30.09
2023-08-01T14:04:09.075Z,30.02
2023-08-01T14:07:11.717Z,30.08
2023-08-01T14:10:15.923Z,30.15
2023-08-01T14:13:18.634Z,29.80
2023-08-01T14:16:21.429Z,29.83
2023-08-01T14:19:23.877Z,30.11
2023-08-01T14:22:26.585Z,30.45
2023-08-01T14:25:30.696Z,29.91
2023-08-01T14:28:34.881Z,30.12
2023-08-01T14:31:37.332Z,30.17
2023-08-01T14:34:40.311Z,30.07
2023-08-01T14:37:46.369Z,30.18
2023-08-01T14:41:06.074Z,29.85
2023-08-01T14:44:11.579Z,30.06
2023-08-01T14:47:15.072Z,30.02
2023-08-01T14:50:17.539Z,30.16
2023-08-01T14:53:20.341Z,30.48
2023-08-01T14:56:23.270Z,30.00
2023-08-01T14:59:26.018Z,29.70
2023-08-01T15:02:28.558Z,29.70
2023-08-01T15:05:31.309Z,29.39
2023-08-01T15:08:34.222Z,29.56
2023-08-01T15:11:37.025Z,29.46
2023-08-01T15:14:39.404Z,29.37
2023-08-01T15:17:42.231Z,29.20
2023-08-01T15:20:44.832Z,29.16
2023-08-01T15:23:47.599Z,29.38
2023-08-01T15:26:49.979Z,29.45
2023-08-01T15:29:52.724Z,29.25
2023-08-01T15:32:55.120Z,29.18
2023-08-01T15:36:03.112Z,29.01
2023-08-01T15:39:05.805Z,29.06
2023-08-01T15:42:08.543Z,29.09
2023-08-01T15:45:11.018Z,28.99
2023-08-01T15:48:13.686Z,28.51
2023-08-01T15:51:16.076Z,27.60
2023-08-01T15:54:18.757Z,27.12
2023-08-01T15:57:21.161Z,26.35
2023-08-01T16:00:24.513Z,26.30
2023-08-01T16:03:28.284Z,25.85
2023-08-01T16:06:30.923Z,25.60
2023-08-01T16:09:33.756Z,25.40
2023-08-01T16:12:36.174Z,24.43
2023-08-01T16:15:40.473Z,24.14
2023-08-01T16:18:42.878Z,24.03
2023-08-01T16:21:45.716Z,23.54
2023-08-01T16:24:48.123Z,23.46
2023-08-01T16:27:52.118Z,23.06
2023-08-01T16:30:54.612Z,22.92
2023-08-01T16:33:57.254Z,22.95
2023-08-01T16:36:59.751Z,22.73
2023-08-01T16:40:02.453Z,22.44
2023-08-01T16:43:06.114Z,22.38
2023-08-01T16:46:08.854Z,21.86
2023-08-01T16:49:22.081Z,21.76
2023-08-01T16:52:26.446Z,21.96
2023-08-01T16:55:28.866Z,21.69
2023-08-01T16:58:31.578Z,21.41
2023-08-01T17:01:34.022Z,21.44
2023-08-01T17:04:39.910Z,21.57
2023-08-01T17:07:42.279Z,21.44
2023-08-01T17:10:44.947Z,21.18
2023-08-01T17:13:47.707Z,21.37
2023-08-01T17:16:50.634Z,21.34
2023-08-01T17:19:53.103Z,21.52
2023-08-01T17:22:55.842Z,21.18
2023-08-01T17:25:58.502Z,21.50
2023-08-01T17:29:01.323Z,21.60
2023-08-01T17:32:04.127Z,21.38
2023-08-01T17:35:07.719Z,21.40
2023-08-01T17:38:10.381Z,21.16
2023-08-01T17:41:24.801Z,21.32
2023-08-01T17:44:35.152Z,21.02
2023-08-01T17:47:43.159Z,21.22
2023-08-01T17:50:45.490Z,21.04
2023-08-01T17:53:48.461Z,20.91
2023-08-01T17:56:50.988Z,20.68
2023-08-01T17:59:53.707Z,20.46
2023-08-01T18:02:56.040Z,20.45
2023-08-01T18:06:10.482Z,20.48
2023-08-01T18:09:13.390Z,20.36
2023-08-01T18:12:16.123Z,20.38
2023-08-01T18:15:18.676Z,19.96
2023-08-01T18:18:21.446Z,19.88
2023-08-01T18:21:24.309Z,19.80
2023-08-01T18:24:26.913Z,19.74
2023-08-01T18:27:29.273Z,19.53
2023-08-01T18:30:32.470Z,19.35
2023-08-01T18:33:35.041Z,19.16
2023-08-01T18:36:37.835Z,18.98
2023-08-01T18:39:40.203Z,18.96
2023-08-01T18:42:42.853Z,18.95
2023-08-01T18:45:54.006Z,18.96
2023-08-01T18:48:56.898Z,19.11
2023-08-01T18:51:59.285Z,19.25
2023-08-01T18:55:02.040Z,19.32
2023-08-01T18:58:05.773Z,19.29
2023-08-01T19:01:14.191Z,19.22
2023-08-01T19:04:16.573Z,19.40
2023-08-01T19:07:19.234Z,19.41
2023-08-01T19:10:21.649Z,19.04
2023-08-01T19:13:24.447Z,19.02
2023-08-01T19:16:26.904Z,19.01
2023-08-01T19:19:29.577Z,19.08
2023-08-01T19:22:32.223Z,19.05
2023-08-01T19:25:34.843Z,19.07
2023-08-01T19:28:37.812Z,19.06
2023-08-01T19:31:40.601Z,19.05
2023-08-01T19:34:50.765Z,19.14
2023-08-01T19:37:53.402Z,19.06
2023-08-01T19:41:01.883Z,18.94
2023-08-01T19:44:04.785Z,18.99
2023-08-01T19:47:07.225Z,19.05
2023-08-01T19:50:10.005Z,19.00
2023-08-01T19:53:12.596Z,19.05
2023-08-01T19:56:15.221Z,18.96
2023-08-01T19:59:17.747Z,19.03
2023-08-01T20:02:20.465Z,19.11
2023-08-01T20:05:23.574Z,19.16
2023-08-01T20:08:26.697Z,19.07
2023-08-01T20:11:29.412Z,19.09
2023-08-01T20:14:31.812Z,19.13
2023-08-01T20:17:35.188Z,19.20
2023-08-01T20:20:37.695Z,19.25
2023-08-01T20:23:40.473Z,19.40
2023-08-01T20:26:45.672Z,19.35
2023-08-01T20:29:48.308Z,19.40
2023-08-01T20:32:50.773Z,19.28
2023-08-01T20:35:58.663Z,19.32
2023-08-01T20:42:04.954Z,19.37
2023-08-01T20:45:08.115Z,19.48
2023-08-01T20:48:12.729Z,19.42
2023-08-01T20:51:15.561Z,19.39
2023-08-01T20:54:18.340Z,19.38
2023-08-01T20:57:20.855Z,19.35
2023-08-01T21:00:23.653Z,19.41
2023-08-01T21:03:27.021Z,19.37
2023-08-01T21:06:29.761Z,19.56
2023-08-01T21:09:32.895Z,19.49
2023-08-01T21:12:36.149Z,19.60
2023-08-01T21:15:38.601Z,19.46
2023-08-01T21:18:41.518Z,19.45
2023-08-01T21:21:43.880Z,19.29
2023-08-01T21:24:46.643Z,19.19
2023-08-01T21:27:49.061Z,19.22
2023-08-01T21:30:51.921Z,19.16
2023-08-01T21:33:54.425Z,19.14
2023-08-01T21:36:57.105Z,19.18
2023-08-01T21:39:59.483Z,19.10
2023-08-01T21:43:02.127Z,19.09
2023-08-01T21:46:04.544Z,18.92
2023-08-01T21:49:07.223Z,18.90
2023-08-01T21:52:09.603Z,18.84
2023-08-01T21:55:12.335Z,18.84
2023-08-01T21:58:15.957Z,18.87
2023-08-01T22:01:18.898Z,18.67
2023-08-01T22:04:21.647Z,18.84
2023-08-01T22:07:24.506Z,18.67
2023-08-01T22:10:27.797Z,18.92
2023-08-01T22:13:30.267Z,18.75
2023-08-01T22:16:32.892Z,18.81
2023-08-01T22:19:35.357Z,18.91
2023-08-01T22:22:38.462Z,18.97
2023-08-01T22:25:40.827Z,19.01
2023-08-01T22:28:43.537Z,19.02
2023-08-01T22:31:48.349Z,19.17
2023-08-01T22:34:51.147Z,19.28
2023-08-01T22:37:53.501Z,19.42
2023-08-01T22:40:56.181Z,19.44
2023-08-01T22:43:59.152Z,19.55
2023-08-01T22:47:02.425Z,19.65
2023-08-01T22:50:07.191Z,19.72
2023-08-01T22:53:10.146Z,19.78
2023-08-01T22:56:12.730Z,19.76
2023-08-01T22:59:15.418Z,19.53
2023-08-01T23:02:18.307Z,19.49
2023-08-01T23:05:21.577Z,19.43
2023-08-01T23:08:24.494Z,19.42
2023-08-01T23:11:27.193Z,19.39
2023-08-01T23:14:29.630Z,19.29
2023-08-01T23:17:34.145Z,19.13
2023-08-01T23:20:36.547Z,19.20
2023-08-01T23:23:39.144Z,19.17
2023-08-01T23:26:41.639Z,19.21
2023-08-01T23:29:44.474Z,19.21
2023-08-01T23:32:46.941Z,19.23
2023-08-01T23:35:49.787Z,19.26
2023-08-01T23:38:52.171Z,19.34
2023-08-01T23:41:55.450Z,19.29
2023-08-01T23:44:58.078Z,19.27
2023-08-01T23:48:00.879Z,19.21
2023-08-01T23:51:03.412Z,19.21
2023-08-01T23:54:06.048Z,19.20
2023-08-01T23:57:08.870Z,19.27
